createdAt,value
2023-05-21T00:00:17.133Z,13.48
2023-05-21T00:04:26.275Z,13.40
2023-05-21T00:08:15.582Z,13.40
2023-05-21T00:12:04.851Z,13.40
2023-05-21T00:15:52.975Z,13.46
2023-05-21T00:19:42.050Z,13.44
2023-05-21T00:23:31.082Z,13.50
2023-05-21T00:27:20.598Z,13.50
2023-05-21T00:31:10.109Z,13.50
2023-05-21T00:34:59.278Z,13.50
2023-05-21T00:38:48.526Z,13.50
2023-05-21T00:42:37.648Z,13.50
2023-05-21T00:46:26.853Z,13.50
2023-05-21T00:50:16.274Z,13.54
2023-05-21T00:54:04.903Z,13.50
2023-05-21T00:57:54.301Z,13.46
2023-05-21T01:01:43.704Z,13.40
2023-05-21T01:05:35.859Z,13.30
2023-05-21T01:09:25.144Z,13.30
2023-05-21T01:13:14.333Z,13.30
2023-05-21T01:17:03.818Z,13.20
2023-05-21T01:20:46.495Z,13.18
2023-05-21T01:24:35.796Z,13.10
2023-05-21T01:28:24.998Z,13.00
2023-05-21T01:32:12.254Z,13.04
2023-05-21T01:36:03.039Z,13.00
2023-05-21T01:39:40.705Z,12.96
2023-05-21T01:43:29.784Z,12.90
2023-05-21T01:47:18.911Z,12.90
2023-05-21T01:51:08.212Z,12.80
2023-05-21T01:54:57.278Z,12.70
2023-05-21T01:58:46.694Z,12.76
2023-05-21T02:02:35.822Z,12.80
2023-05-21T02:06:27.573Z,12.90
2023-05-21T02:10:19.913Z,12.90
2023-05-21T02:14:03.219Z,12.80
2023-05-21T02:17:52.465Z,12.70
2023-05-21T02:21:41.688Z,12.54
2023-05-21T02:25:30.871Z,12.48
2023-05-21T02:29:19.988Z,12.40
2023-05-21T02:33:09.531Z,12.40
2023-05-21T02:36:58.875Z,12.30
2023-05-21T02:40:48.113Z,12.30
2023-05-21T02:44:37.158Z,12.20
2023-05-21T02:48:08.883Z,12.20
2023-05-21T02:51:58.485Z,12.20
2023-05-21T02:55:47.824Z,12.20
2023-05-21T02:59:37.101Z,12.20
2023-05-21T03:03:26.540Z,12.20
2023-05-21T03:07:10.356Z,12.10
2023-05-21T03:10:59.601Z,12.10
2023-05-21T03:14:48.586Z,12.10
2023-05-21T03:18:37.839Z,12.10
2023-05-21T03:22:26.154Z,12.10
2023-05-21T03:26:15.100Z,12.12
2023-05-21T03:30:06.635Z,12.20
2023-05-21T03:33:57.450Z,12.20
2023-05-21T03:37:46.365Z,12.24
2023-05-21T03:41:35.616Z,12.30
2023-05-21T03:45:30.717Z,12.30
2023-05-21T03:49:22.588Z,12.40
2023-05-21T03:53:11.654Z,12.40
2023-05-21T03:57:00.727Z,12.42
2023-05-21T04:00:42.226Z,12.50
2023-05-21T04:04:31.328Z,12.58
2023-05-21T04:08:20.434Z,12.60
2023-05-21T04:12:09.554Z,12.70
2023-05-21T04:15:58.952Z,12.70
2023-05-21T04:19:48.078Z,12.70
2023-05-21T04:23:37.193Z,12.70
2023-05-21T04:27:27.060Z,12.70
2023-05-21T04:31:19.453Z,12.70
2023-05-21T04:35:08.523Z,12.80
2023-05-21T04:38:57.808Z,13.00
2023-05-21T04:42:47.110Z,13.20
2023-05-21T04:46:36.144Z,13.20
2023-05-21T04:50:25.181Z,13.30
2023-05-21T04:54:14.176Z,13.40
2023-05-21T04:58:03.233Z,13.50
2023-05-21T05:01:52.428Z,13.60
2023-05-21T05:05:41.597Z,13.70
2023-05-21T05:09:30.691Z,13.80
2023-05-21T05:13:19.969Z,13.90
2023-05-21T05:17:09.074Z,14.10
2023-05-21T05:20:58.152Z,14.20
2023-05-21T05:24:47.132Z,14.30
2023-05-21T05:28:36.212Z,14.50
2023-05-21T05:32:25.466Z,14.60
2023-05-21T05:36:14.549Z,14.80
2023-05-21T05:40:03.631Z,15.00
2023-05-21T05:43:32.459Z,15.10
2023-05-21T05:47:21.590Z,15.22
2023-05-21T05:51:10.773Z,15.40
2023-05-21T05:55:23.674Z,15.60
2023-05-21T05:59:13.042Z,15.80
2023-05-21T06:03:02.160Z,15.90
2023-05-21T06:06:51.346Z,16.10
2023-05-21T06:10:23.437Z,16.20
2023-05-21T06:14:12.604Z,16.30
2023-05-21T06:18:01.852Z,16.40
2023-05-21T06:21:50.902Z,16.50
2023-05-21T06:25:40.135Z,16.62
2023-05-21T06:29:29.378Z,16.80
2023-05-21T06:33:18.689Z,16.82
2023-05-21T06:37:08.148Z,16.90
2023-05-21T06:41:18.040Z,17.02
2023-05-21T06:45:09.650Z,17.20
2023-05-21T06:48:59.346Z,17.30
2023-05-21T06:52:50.304Z,17.30
2023-05-21T06:56:48.276Z,17.46
2023-05-21T07:00:27.221Z,17.60
2023-05-21T07:04:16.316Z,17.70
2023-05-21T07:07:40.622Z,17.80
2023-05-21T07:11:19.949Z,17.96
2023-05-21T07:14:49.143Z,18.08
2023-05-21T07:18:38.607Z,18.10
2023-05-21T07:22:28.438Z,18.20
2023-05-21T07:26:17.677Z,18.30
2023-05-21T07:30:05.755Z,18.40
2023-05-21T07:33:25.620Z,18.60
2023-05-21T07:37:14.724Z,18.70
2023-05-21T07:40:49.026Z,18.80
2023-05-21T07:44:38.316Z,19.00
2023-05-21T07:47:59.920Z,19.10
2023-05-21T07:51:22.146Z,19.20
2023-05-21T07:55:01.788Z,19.30
2023-05-21T07:58:50.992Z,19.40
2023-05-21T08:02:40.100Z,19.60
2023-05-21T08:05:52.488Z,19.70
2023-05-21T08:09:41.597Z,19.80
2023-05-21T08:13:01.101Z,19.90
2023-05-21T08:15:40.833Z,20.00
2023-05-21T08:19:00.236Z,20.10
2023-05-21T08:22:49.424Z,20.20
2023-05-21T08:25:54.038Z,20.30
2023-05-21T08:29:07.430Z,20.40
2023-05-21T08:32:49.356Z,20.50
2023-05-21T08:35:59.668Z,20.60
2023-05-21T08:39:34.571Z,20.70
2023-05-21T08:43:14.216Z,20.80
2023-05-21T08:46:37.830Z,20.90
2023-05-21T08:49:48.221Z,21.00
2023-05-21T08:53:27.439Z,21.16
2023-05-21T08:56:50.758Z,21.20
2023-05-21T09:00:01.536Z,21.22
2023-05-21T09:03:33.830Z,21.40
2023-05-21T09:07:11.566Z,21.44
2023-05-21T09:11:09.257Z,21.50
2023-05-21T09:14:13.213Z,21.50
2023-05-21T09:17:15.424Z,21.70
2023-05-21T09:20:33.810Z,21.80
2023-05-21T09:23:42.560Z,21.98
2023-05-21T09:26:46.342Z,22.08
2023-05-21T09:29:42.312Z,22.18
2023-05-21T09:32:40.474Z,22.30
2023-05-21T09:36:04.839Z,22.30
2023-05-21T09:39:33.113Z,22.30
2023-05-21T09:42:53.651Z,22.46
2023-05-21T09:46:25.944Z,22.50
2023-05-21T09:49:35.026Z,22.62
2023-05-21T09:53:06.634Z,22.70
2023-05-21T09:56:19.981Z,22.96
2023-05-21T09:59:33.928Z,23.10
2023-05-21T10:02:23.601Z,23.30
2023-05-21T10:05:08.348Z,23.40
2023-05-21T10:08:15.594Z,23.50
2023-05-21T10:11:16.357Z,23.60
2023-05-21T10:14:07.363Z,23.80
2023-05-21T10:17:19.000Z,24.00
2023-05-21T10:20:26.248Z,24.10
2023-05-21T10:23:16.007Z,24.20
2023-05-21T10:26:27.879Z,24.26
2023-05-21T10:29:19.797Z,24.46
2023-05-21T10:32:01.986Z,24.70
2023-05-21T10:34:39.430Z,24.90
2023-05-21T10:37:22.020Z,25.10
2023-05-21T10:40:01.598Z,25.10
2023-05-21T10:42:33.089Z,25.30
2023-05-21T10:45:22.949Z,25.40
2023-05-21T10:48:33.045Z,25.48
2023-05-21T10:51:31.282Z,25.60
2023-05-21T10:54:43.346Z,25.60
2023-05-21T10:57:46.285Z,25.52
2023-05-21T11:00:20.778Z,25.70
2023-05-21T11:02:52.361Z,25.80
2023-05-21T11:05:55.197Z,26.00
2023-05-21T11:08:28.168Z,26.10
2023-05-21T11:10:58.382Z,26.30
2023-05-21T11:13:38.991Z,26.40
2023-05-21T11:16:21.936Z,26.52
2023-05-21T11:18:50.502Z,26.66
2023-05-21T11:21:21.813Z,26.78
2023-05-21T11:23:56.935Z,26.62
2023-05-21T11:26:27.169Z,26.50
2023-05-21T11:29:04.500Z,26.48
2023-05-21T11:31:40.101Z,26.70
2023-05-21T11:34:15.618Z,26.90
2023-05-21T11:36:47.428Z,27.00
2023-05-21T11:39:21.882Z,27.12
2023-05-21T11:42:07.897Z,27.08
2023-05-21T11:44:42.262Z,27.00
2023-05-21T11:47:18.973Z,26.98
2023-05-21T11:49:47.108Z,27.00
2023-05-21T11:52:15.729Z,27.08
2023-05-21T11:54:46.550Z,26.76
2023-05-21T11:57:16.949Z,26.54
2023-05-21T11:59:48.808Z,26.22
2023-05-21T12:02:21.146Z,26.10
2023-05-21T12:05:01.151Z,25.66
2023-05-21T12:07:40.858Z,25.40
2023-05-21T12:10:33.171Z,25.24
2023-05-21T12:13:24.144Z,25.10
2023-05-21T12:16:23.426Z,25.10
2023-05-21T12:19:04.196Z,25.10
2023-05-21T12:21:53.094Z,25.10
2023-05-21T12:24:43.814Z,25.10
2023-05-21T12:27:21.649Z,25.20
2023-05-21T12:30:04.108Z,25.40
2023-05-21T12:32:44.609Z,25.58
2023-05-21T12:35:32.413Z,25.60
2023-05-21T12:38:07.411Z,25.60
2023-05-21T12:40:45.884Z,25.70
2023-05-21T12:43:35.147Z,25.52
2023-05-21T12:46:19.876Z,25.30
2023-05-21T12:49:31.801Z,25.00
2023-05-21T12:52:24.898Z,24.90
2023-05-21T12:55:18.793Z,24.90
2023-05-21T12:58:10.301Z,25.10
2023-05-21T13:01:14.230Z,25.20
2023-05-21T13:04:04.540Z,25.30
2023-05-21T13:06:56.117Z,25.40
2023-05-21T13:09:41.970Z,25.50
2023-05-21T13:12:23.344Z,25.60
2023-05-21T13:15:00.270Z,25.60
2023-05-21T13:17:44.490Z,25.80
2023-05-21T13:20:26.742Z,25.98
2023-05-21T13:22:59.999Z,26.20
2023-05-21T13:25:51.723Z,26.40
2023-05-21T13:28:23.945Z,26.40
2023-05-21T13:30:58.000Z,26.50
2023-05-21T13:33:32.400Z,26.60
2023-05-21T13:36:06.147Z,26.68
2023-05-21T13:38:40.983Z,26.72
2023-05-21T13:41:12.946Z,26.86
2023-05-21T13:43:50.001Z,26.80
2023-05-21T13:46:21.439Z,26.74
2023-05-21T13:48:52.515Z,26.70
2023-05-21T13:54:01.639Z,26.56
2023-05-21T13:56:34.028Z,26.60
2023-05-21T13:59:18.398Z,26.52
2023-05-21T14:01:58.205Z,26.50
2023-05-21T14:04:39.685Z,26.54
2023-05-21T14:07:15.989Z,26.48
2023-05-21T14:09:52.660Z,26.40
2023-05-21T14:13:11.222Z,26.32
2023-05-21T14:15:57.476Z,26.30
2023-05-21T14:18:34.964Z,26.22
2023-05-21T14:21:15.177Z,26.10
2023-05-21T14:23:46.715Z,26.02
2023-05-21T14:26:15.910Z,26.00
2023-05-21T14:28:58.382Z,26.10
2023-05-21T14:32:46.720Z,25.92
2023-05-21T14:35:47.999Z,25.70
2023-05-21T14:38:39.158Z,25.70
2023-05-21T14:41:50.266Z,25.70
2023-05-21T14:46:10.699Z,25.60
2023-05-21T14:48:39.825Z,25.60
2023-05-21T14:51:14.247Z,25.54
2023-05-21T14:53:57.351Z,25.50
2023-05-21T14:56:41.086Z,25.50
2023-05-21T14:59:32.817Z,25.44
2023-05-21T15:02:21.953Z,25.50
2023-05-21T15:05:26.842Z,25.34
2023-05-21T15:08:31.752Z,25.10
2023-05-21T15:11:34.323Z,25.00
2023-05-21T15:14:57.079Z,24.62
2023-05-21T15:18:01.850Z,24.06
2023-05-21T15:21:30.888Z,23.14
2023-05-21T15:24:39.570Z,22.48
2023-05-21T15:27:54.503Z,22.00
2023-05-21T15:31:33.662Z,21.60
2023-05-21T15:35:09.907Z,21.30
2023-05-21T15:38:49.290Z,21.10
2023-05-21T15:42:36.961Z,21.00
2023-05-21T15:46:26.262Z,21.00
2023-05-21T15:50:09.895Z,20.80
2023-05-21T15:53:49.018Z,20.70
2023-05-21T15:57:38.548Z,20.60
2023-05-21T16:01:33.685Z,20.40
2023-05-21T16:06:15.046Z,20.40
2023-05-21T16:09:15.756Z,20.40
2023-05-21T16:12:33.817Z,20.40
2023-05-21T16:16:16.462Z,20.50
2023-05-21T16:20:05.695Z,20.40
2023-05-21T16:23:54.909Z,20.30
2023-05-21T16:27:26.268Z,20.30
2023-05-21T16:31:15.552Z,20.30
2023-05-21T16:35:04.623Z,20.18
2023-05-21T16:38:19.263Z,20.10
2023-05-21T16:41:51.336Z,20.20
2023-05-21T16:45:44.084Z,20.30
2023-05-21T16:49:06.694Z,20.40
2023-05-21T16:52:39.874Z,20.46
2023-05-21T16:56:08.850Z,20.40
2023-05-21T16:59:57.190Z,20.40
2023-05-21T17:03:06.028Z,20.40
2023-05-21T17:06:35.118Z,20.40
2023-05-21T17:10:07.484Z,20.40
2023-05-21T17:13:20.730Z,20.40
2023-05-21T17:16:51.382Z,20.40
2023-05-21T17:20:40.313Z,20.30
2023-05-21T17:23:59.251Z,20.30
2023-05-21T17:27:11.395Z,20.24
2023-05-21T17:30:40.486Z,20.20
2023-05-21T17:33:52.281Z,20.10
2023-05-21T17:37:22.879Z,20.00
2023-05-21T17:40:44.429Z,19.90
2023-05-21T17:44:15.612Z,19.80
2023-05-21T17:48:04.976Z,19.80
2023-05-21T17:51:36.990Z,19.70
2023-05-21T17:55:26.012Z,19.52
2023-05-21T17:58:50.891Z,19.40
2023-05-21T18:02:40.204Z,19.30
2023-05-21T18:06:15.147Z,19.24
2023-05-21T18:09:39.973Z,19.20
2023-05-21T18:13:29.015Z,19.10
2023-05-21T18:17:08.464Z,19.10
2023-05-21T18:20:57.824Z,18.90
2023-05-21T18:24:46.573Z,18.80
2023-05-21T18:28:30.024Z,18.80
2023-05-21T18:32:10.855Z,18.80
2023-05-21T18:35:39.954Z,18.80
2023-05-21T18:39:29.622Z,18.70
2023-05-21T18:43:18.910Z,18.60
2023-05-21T18:47:08.330Z,18.50
2023-05-21T18:50:57.623Z,18.38
2023-05-21T18:54:47.879Z,18.20
2023-05-21T18:58:37.174Z,18.10
2023-05-21T19:02:26.371Z,17.98
2023-05-21T19:06:15.614Z,17.90
2023-05-21T19:10:05.125Z,17.80
2023-05-21T19:13:54.035Z,17.80
2023-05-21T19:17:43.187Z,17.70
2023-05-21T19:21:35.272Z,17.60
2023-05-21T19:25:24.576Z,17.50
2023-05-21T19:29:13.741Z,17.50
2023-05-21T19:33:03.062Z,17.60
2023-05-21T19:36:58.684Z,17.60
2023-05-21T19:40:48.435Z,17.44
2023-05-21T19:44:36.984Z,17.30
2023-05-21T19:48:29.219Z,17.20
2023-05-21T19:52:21.103Z,17.10
2023-05-21T19:56:10.396Z,17.10
2023-05-21T20:00:02.092Z,16.90
2023-05-21T20:03:51.910Z,16.80
2023-05-21T20:07:41.187Z,16.80
2023-05-21T20:11:30.456Z,16.84
2023-05-21T20:15:19.636Z,16.80
2023-05-21T20:19:08.993Z,16.80
2023-05-21T20:23:01.281Z,16.70
2023-05-21T20:26:44.174Z,16.70
2023-05-21T20:30:33.288Z,16.70
2023-05-21T20:34:22.761Z,16.60
2023-05-21T20:38:10.948Z,16.52
2023-05-21T20:42:00.429Z,16.50
2023-05-21T20:45:50.013Z,16.46
2023-05-21T20:49:38.897Z,16.40
2023-05-21T20:53:28.734Z,16.30
2023-05-21T20:57:17.797Z,16.20
2023-05-21T21:01:07.377Z,16.20
2023-05-21T21:04:56.801Z,16.00
2023-05-21T21:08:48.064Z,16.00
2023-05-21T21:12:37.466Z,15.90
2023-05-21T21:16:26.478Z,15.80
2023-05-21T21:20:15.910Z,15.70
2023-05-21T21:24:05.335Z,15.60
2023-05-21T21:27:54.399Z,15.60
2023-05-21T21:31:43.563Z,15.50
2023-05-21T21:35:32.614Z,15.40
2023-05-21T21:39:21.816Z,15.40
2023-05-21T21:43:11.135Z,15.30
2023-05-21T21:47:00.259Z,15.20
2023-05-21T21:50:49.395Z,15.10
2023-05-21T21:54:38.764Z,14.98
2023-05-21T21:58:28.048Z,14.94
2023-05-21T22:02:17.391Z,14.90
2023-05-21T22:06:01.608Z,14.82
2023-05-21T22:09:50.759Z,14.80
2023-05-21T22:13:34.829Z,14.80
2023-05-21T22:17:23.986Z,14.78
2023-05-21T22:21:13.663Z,14.70
2023-05-21T22:25:03.154Z,14.70
2023-05-21T22:28:52.534Z,14.60
2023-05-21T22:32:40.868Z,14.54
2023-05-21T22:36:29.112Z,14.50
2023-05-21T22:40:17.962Z,14.54
2023-05-21T22:44:07.103Z,14.60
2023-05-21T22:47:56.052Z,14.50
2023-05-21T22:51:45.119Z,14.50
2023-05-21T22:55:34.226Z,14.50
2023-05-21T22:59:22.887Z,14.40
2023-05-21T23:03:12.093Z,14.40
2023-05-21T23:07:01.466Z,14.40
2023-05-21T23:10:50.693Z,14.40
2023-05-21T23:14:39.772Z,14.40
2023-05-21T23:18:28.914Z,14.42
2023-05-21T23:22:18.164Z,14.50
2023-05-21T23:26:00.713Z,14.50
2023-05-21T23:29:50.091Z,14.50
2023-05-21T23:33:39.230Z,14.48
2023-05-21T23:37:28.088Z,14.44
2023-05-21T23:41:17.134Z,14.46
2023-05-21T23:45:06.434Z,14.50
2023-05-21T23:48:55.447Z,14.60
2023-05-21T23:52:44.783Z,14.60
2023-05-21T23:56:34.381Z,14.60
